Sacramento, CA

8:58 PM PDT on September 17, 2014 (GMT -0700)
Sacramento Executive | Change Station
CLOSE
Current Station
Airport
Location: Sacramento,
Elevation: 26 ft
Nearby Weather Stations

Elev 26 ft 38.51 °N, 121.50 °W | Updated 5 minutes ago

Clear
Clear
72 °F
Feels Like 72 °F
N
10
Wind Variable Wind from SW
Gusts 18 mph

Today
High -- | Low -- °F
--% Chance of Precip.
Yesterday
High -- | Low -- °F
Precip. -- in
6:49 AM 7:10 PM
Waning Crescent, 30% visible
Pressure 29.74 in
Visibility 10.0 miles
Clouds Clear
Dew Point 55 °F
Humidity 55%
Rainfall 0.00 in
Snow Depth 0 in , 0 in , 0 in
UV 0 out of 12
Pollen 6.20 out of 12
Ozone Good
PM2.5 Good
Flu Activity Not available.
METAR KSAC 180353Z 22009G16KT 10SM CLR 22/13 A2974 RMK AO2 SLP069 T02220128

More Conditions Fewer Conditions

Pressure 29.74 in
Visibility 10.0 miles
Clouds Clear
Dew Point 55 °F
Humidity 55%
Rainfall 0.00 in
Snow Depth 0 in , 0 in , 0 in
UV 0 out of 12
Pollen 6.20 out of 12
Ozone Good
PM2.5 Good
Flu Activity Not available.
METAR KSAC 180353Z 22009G16KT 10SM CLR 22/13 A2974 RMK AO2 SLP069 T02220128

More Conditions Fewer Conditions

10-Day Weather Forecast

Almanac

Astronomy

Sep. 17, 2014 Rise Set
Actual Time 6:49 AM PDT 7:10 PM PDT
Civil Twilight 6:22 AM PDT 7:37 PM PDT
Nautical Twilight 5:51 AM PDT 8:08 PM PDT
Astronomical Twilight 5:19 AM PDT 8:40 PM PDT
Moon 12:56 AM PDT (9/17) 3:21 PM PDT (9/17)
Length of Visible Light 13h 14m
Length of Day
12h 21m
Tomorrow will be 2m 29s shorter.
Waning Crescent, 30% of the Moon is Illuminated
Today
Waning Crescent
Sep 24
New
Oct 1
First Quarter
Oct 8
Full
Oct 15
Last Quarter

Today's Extremes

State Highs State Lows

Community

WunderPhotos

Upload Photos

1,754,283 photos uploaded!

Nearby

Air Quality

  Air Quality AQ Index Pollutant
Yesterday Good
OZONE
Yesterday Good
PM10
Current Good
PM2.5
Current Good
OZONE
Wednesday Good
OZONE
Thursday Good
OZONE
Friday Moderate
OZONE
Saturday Moderate
OZONE
Sunday Moderate
OZONE
Monday Moderate
OZONE

Snow Depth

Station Depth Elevation
Burnside Lake 0 in 8139 ft
Echo Peak 0 in 7800 ft
Hagan's Meadow 0 in 8000 ft
Monitor Pass 0 in 8350 ft
Leavitt Meadows 1 in 7200 ft

Earthquake Activity

City Distance Mag. Time & Date
Cobb, California 67 miles 2.7 1:23 PM PDT
2014-09-16
Minimum magnitude displayed is 2.5.

Coastal Water Temperatures

Place Temperature
No Stations Reporting

Nearby Weather Stations